Time;durP1;ratioP1;P1;durP2;ratioP2;P2;SDS_P1;SDS_P2;PMS_P1;PMS_P2;Temp;Humidity;BMP_temperature;BMP_pressure;BME280_temperature;BME280_humidity;BME280_pressure;Samples;Min_cycle;Max_cycle;Signal;HPM_P1;HPM_P2
2021/10/08 00:01:30;;;;;;;93.55;16.80;;;5.50;99.90;;;;;;5052764;28;20037;-62
2021/10/08 00:03:56;;;;;;;165.90;19.42;;;5.50;99.90;;;;;;5046749;28;20049;-62
2021/10/08 00:06:22;;;;;;;102.30;16.17;;;5.50;99.90;;;;;;5032654;28;20583;-62
2021/10/08 00:08:48;;;;;;;41.78;13.52;;;5.50;99.90;;;;;;5039569;28;20112;-62
2021/10/08 00:11:14;;;;;;;52.65;13.40;;;5.50;99.90;;;;;;5038840;28;20120;-62
2021/10/08 00:13:40;;;;;;;73.93;14.25;;;5.60;99.90;;;;;;5053750;28;20051;-62
2021/10/08 00:16:06;;;;;;;56.25;14.55;;;5.60;99.90;;;;;;5052103;28;20045;-62
2021/10/08 00:18:33;;;;;;;103.95;15.45;;;5.60;99.90;;;;;;5042640;28;20042;-62
2021/10/08 00:20:59;;;;;;;76.28;14.32;;;5.60;99.90;;;;;;5047291;28;20522;-62
2021/10/08 00:23:25;;;;;;;70.10;14.27;;;5.60;99.90;;;;;;5042457;28;20483;-62
2021/10/08 00:25:50;;;;;;;62.28;12.95;;;5.70;99.90;;;;;;5047617;28;20076;-62
2021/10/08 00:28:16;;;;;;;54.53;12.50;;;5.60;99.90;;;;;;5046981;28;20052;-62
2021/10/08 00:30:41;;;;;;;69.90;13.48;;;5.70;99.90;;;;;;5051795;28;20052;-62
2021/10/08 00:33:07;;;;;;;41.03;12.45;;;5.70;99.90;;;;;;5048184;28;20060;-62
2021/10/08 00:35:33;;;;;;;101.78;13.70;;;5.60;99.90;;;;;;5053098;28;20145;-62
2021/10/08 00:37:58;;;;;;;43.78;11.43;;;5.60;99.90;;;;;;5043377;28;20037;-62
2021/10/08 00:40:25;;;;;;;80.20;13.07;;;5.50;99.90;;;;;;5036902;28;20132;-62
2021/10/08 00:42:50;;;;;;;55.42;11.82;;;5.30;99.90;;;;;;5044237;28;20051;-62
2021/10/08 00:45:16;;;;;;;55.88;12.32;;;5.20;99.90;;;;;;5043918;28;20045;-62
2021/10/08 00:47:42;;;;;;;31.52;10.82;;;5.20;99.90;;;;;;5047119;28;20054;-62
2021/10/08 00:50:10;;;;;;;35.03;10.80;;;5.30;99.90;;;;;;5053014;28;20033;-62
2021/10/08 00:52:36;;;;;;;48.70;12.50;;;5.30;99.90;;;;;;5046580;28;20427;-62
2021/10/08 00:55:02;;;;;;;33.30;10.82;;;5.30;99.90;;;;;;5051645;28;20150;-62
2021/10/08 00:57:27;;;;;;;65.55;11.82;;;5.30;99.90;;;;;;5033650;28;20444;-62
2021/10/08 00:59:53;;;;;;;61.25;11.38;;;5.20;99.90;;;;;;5043821;28;20041;-62
2021/10/08 01:02:20;;;;;;;65.22;11.35;;;5.20;99.90;;;;;;5043445;28;20103;-62
2021/10/08 01:04:55;;;;;;;49.58;11.10;;;5.20;99.90;;;;;;5031441;28;20044;-62
2021/10/08 01:07:21;;;;;;;39.55;10.60;;;5.20;99.90;;;;;;5033595;28;20367;-62
2021/10/08 01:09:47;;;;;;;19.90;11.00;;;5.20;99.90;;;;;;5034817;28;20386;-62
2021/10/08 01:12:12;;;;;;;41.17;10.80;;;5.20;99.90;;;;;;5030707;28;20042;-62
2021/10/08 01:14:38;;;;;;;57.05;10.52;;;5.20;99.90;;;;;;5052385;28;20051;-62
2021/10/08 01:17:16;;;;;;;58.42;11.90;;;5.10;99.90;;;;;;5044868;28;20491;-62
2021/10/08 01:19:43;;;;;;;76.32;11.90;;;5.10;99.90;;;;;;5042768;28;20049;-62
2021/10/08 01:22:09;;;;;;;37.00;10.73;;;5.10;99.90;;;;;;5034961;28;20053;-62
2021/10/08 01:24:34;;;;;;;55.42;11.95;;;5.00;99.90;;;;;;5048436;28;20051;-62
2021/10/08 01:27:08;;;;;;;51.70;11.98;;;5.00;99.90;;;;;;5050848;28;20106;-62
2021/10/08 01:29:50;;;;;;;44.60;10.75;;;5.10;99.90;;;;;;5049409;28;20398;-62
2021/10/08 01:32:16;;;;;;;29.92;9.82;;;5.10;99.90;;;;;;5035844;28;20533;-62
2021/10/08 01:34:41;;;;;;;53.10;11.35;;;5.20;99.90;;;;;;5050467;28;20060;-62
2021/10/08 01:37:07;;;;;;;30.90;9.50;;;5.20;99.90;;;;;;5041819;28;20167;-62
2021/10/08 01:39:33;;;;;;;77.30;11.55;;;5.10;99.90;;;;;;5039430;28;20037;-62
2021/10/08 01:41:58;;;;;;;23.85;9.55;;;5.20;99.90;;;;;;5046963;28;20048;-62
2021/10/08 01:44:24;;;;;;;21.58;9.82;;;5.10;99.90;;;;;;5050166;28;20045;-62
2021/10/08 01:46:50;;;;;;;17.23;8.45;;;5.20;99.90;;;;;;5044101;28;20038;-62
2021/10/08 01:49:15;;;;;;;19.52;9.52;;;5.10;99.90;;;;;;5043457;28;20518;-62
2021/10/08 01:51:41;;;;;;;23.85;9.45;;;5.10;99.90;;;;;;5047420;28;20033;-62
2021/10/08 01:54:07;;;;;;;17.90;8.40;;;5.10;99.90;;;;;;5049510;28;20041;-62
2021/10/08 01:56:32;;;;;;;25.60;9.02;;;5.10;99.90;;;;;;5048745;28;20037;-62
2021/10/08 01:58:59;;;;;;;30.48;9.40;;;5.10;99.90;;;;;;5050843;28;20065;-62
2021/10/08 02:01:24;;;;;;;20.75;8.90;;;5.10;99.90;;;;;;5048878;28;20124;-62
2021/10/08 02:03:51;;;;;;;28.23;9.25;;;5.00;99.90;;;;;;5048857;28;20124;-62
2021/10/08 02:06:17;;;;;;;24.67;9.20;;;5.00;99.90;;;;;;5033997;28;20076;-62
2021/10/08 02:08:43;;;;;;;40.65;9.18;;;4.90;99.90;;;;;;5050107;28;20076;-62
2021/10/08 02:11:09;;;;;;;57.70;10.25;;;4.90;99.90;;;;;;5046673;28;20073;-62
2021/10/08 02:13:34;;;;;;;34.90;9.98;;;4.90;99.90;;;;;;5050536;28;20067;-62
2021/10/08 02:16:00;;;;;;;28.95;9.25;;;5.00;99.90;;;;;;5042767;28;20044;-62
2021/10/08 02:18:28;;;;;;;33.45;9.25;;;5.00;99.90;;;;;;5050822;28;20415;-62
2021/10/08 02:20:54;;;;;;;80.65;12.10;;;5.10;99.90;;;;;;5048547;28;20041;-62
2021/10/08 02:23:20;;;;;;;183.05;14.50;;;5.10;99.90;;;;;;5049891;28;20053;-62
2021/10/08 02:25:45;;;;;;;181.65;13.60;;;5.10;99.90;;;;;;5042600;28;20591;-62
2021/10/08 02:28:11;;;;;;;101.63;12.13;;;5.00;99.90;;;;;;5034117;28;20060;-62
2021/10/08 02:30:36;;;;;;;82.38;11.73;;;5.10;99.90;;;;;;5043214;28;20044;-62
2021/10/08 02:33:02;;;;;;;108.47;12.02;;;5.10;99.90;;;;;;5049736;28;20044;-62
2021/10/08 02:35:28;;;;;;;65.75;11.10;;;5.10;99.90;;;;;;5045316;28;20056;-62
2021/10/08 02:37:53;;;;;;;73.63;10.43;;;5.10;99.90;;;;;;5033682;28;20041;-62
2021/10/08 02:40:19;;;;;;;56.67;10.63;;;5.10;99.90;;;;;;5044271;28;20037;-62
2021/10/08 02:42:44;;;;;;;94.65;10.80;;;5.10;99.90;;;;;;5046772;28;20037;-64
2021/10/08 02:45:10;;;;;;;104.30;10.85;;;5.10;99.90;;;;;;5040707;28;20041;-62
2021/10/08 02:47:35;;;;;;;47.20;8.90;;;5.00;99.90;;;;;;5049318;28;20045;-62
2021/10/08 02:50:01;;;;;;;50.15;9.05;;;5.00;99.90;;;;;;5048736;28;20033;-62
2021/10/08 02:52:27;;;;;;;79.20;9.52;;;4.90;99.90;;;;;;5051335;28;20538;-62
2021/10/08 02:54:52;;;;;;;25.98;8.35;;;4.90;99.90;;;;;;5053582;28;20075;-62
2021/10/08 02:57:18;;;;;;;43.80;9.02;;;4.90;99.90;;;;;;5053449;28;20060;-62
2021/10/08 02:59:43;;;;;;;36.72;8.23;;;4.90;99.90;;;;;;5051424;28;20514;-62
2021/10/08 03:02:09;;;;;;;78.82;10.60;;;4.90;99.90;;;;;;5050688;28;20048;-62
2021/10/08 03:04:34;;;;;;;53.65;9.60;;;4.80;99.90;;;;;;5032872;28;20391;-62
2021/10/08 03:07:00;;;;;;;35.35;8.23;;;4.80;99.90;;;;;;5040405;28;20407;-62
2021/10/08 03:09:25;;;;;;;34.28;8.85;;;4.90;99.90;;;;;;5049461;28;20533;-62
2021/10/08 03:11:51;;;;;;;20.92;7.82;;;4.90;99.90;;;;;;5047173;28;20120;-62
2021/10/08 03:14:16;;;;;;;36.67;8.45;;;4.90;99.90;;;;;;5041302;28;20072;-62
2021/10/08 03:16:42;;;;;;;46.20;9.57;;;4.90;99.90;;;;;;5046081;28;20079;-62
2021/10/08 03:19:08;;;;;;;29.65;8.35;;;4.90;99.90;;;;;;5053943;28;20487;-62
2021/10/08 03:21:33;;;;;;;32.65;8.35;;;5.00;99.90;;;;;;5054074;28;20402;-62
2021/10/08 03:23:59;;;;;;;79.93;9.93;;;5.00;99.90;;;;;;5054760;28;20045;-62
2021/10/08 03:26:25;;;;;;;33.40;8.50;;;5.00;99.90;;;;;;5050043;28;20471;-62
2021/10/08 03:28:50;;;;;;;53.03;8.93;;;5.00;99.90;;;;;;5054242;28;20482;-62
2021/10/08 03:31:16;;;;;;;47.47;8.32;;;4.80;99.90;;;;;;5029054;28;20045;-62
2021/10/08 03:33:41;;;;;;;41.50;9.15;;;4.70;99.90;;;;;;5053038;28;20044;-62
2021/10/08 03:36:11;;;;;;;46.00;8.75;;;4.70;99.90;;;;;;5063844;22;20451;-66
2021/10/08 03:38:37;;;;;;;36.53;7.22;;;4.70;99.90;;;;;;5073173;28;20056;-66
2021/10/08 03:43:29;;;;;;;23.20;7.97;;;4.60;99.90;;;;;;5055414;28;20102;-66
2021/10/08 03:45:59;;;;;;;36.75;8.80;;;4.60;99.90;;;;;;5055807;28;20045;-69
2021/10/08 03:48:38;;;;;;;48.40;9.15;;;4.50;99.90;;;;;;5074107;28;20047;-69
2021/10/08 03:51:05;;;;;;;58.00;9.05;;;4.60;99.90;;;;;;5072501;28;20074;-68
2021/10/08 03:53:31;;;;;;;57.28;9.18;;;4.50;99.90;;;;;;5055964;28;20371;-68
2021/10/08 03:55:57;;;;;;;30.58;8.10;;;4.40;99.90;;;;;;5073449;28;20033;-68
2021/10/08 03:58:23;;;;;;;31.40;8.57;;;4.50;99.90;;;;;;5055989;28;20052;-69
2021/10/08 04:00:49;;;;;;;17.08;7.65;;;4.50;99.90;;;;;;5073157;28;20385;-68
2021/10/08 04:03:15;;;;;;;24.15;8.40;;;4.50;99.90;;;;;;5072861;28;20045;-69
2021/10/08 04:05:41;;;;;;;61.17;10.35;;;4.60;99.90;;;;;;5073594;28;20045;-69
2021/10/08 04:08:06;;;;;;;27.92;7.82;;;4.60;99.90;;;;;;5072342;28;20051;-69
2021/10/08 04:10:32;;;;;;;18.48;7.90;;;4.60;99.90;;;;;;5055125;28;20048;-68
2021/10/08 04:12:57;;;;;;;101.05;10.65;;;4.70;99.90;;;;;;5073233;28;20039;-68
2021/10/08 04:15:23;;;;;;;49.13;8.35;;;4.70;99.90;;;;;;5073353;28;20032;-69
2021/10/08 04:17:48;;;;;;;57.75;9.63;;;4.60;99.90;;;;;;5073345;28;20052;-69
2021/10/08 04:20:14;;;;;;;42.53;8.05;;;4.60;99.90;;;;;;5055311;28;20037;-68
2021/10/08 04:22:40;;;;;;;20.67;7.32;;;4.70;99.90;;;;;;5073472;28;20529;-68
2021/10/08 04:25:06;;;;;;;35.75;8.63;;;4.60;99.90;;;;;;5070323;28;20033;-69
2021/10/08 04:27:32;;;;;;;28.88;8.32;;;4.70;99.90;;;;;;5073291;28;20041;-69
2021/10/08 04:29:58;;;;;;;29.33;7.28;;;4.70;99.90;;;;;;5054615;28;20634;-68
2021/10/08 04:32:23;;;;;;;25.13;8.10;;;4.60;99.90;;;;;;5028314;28;20047;-69
2021/10/08 04:34:49;;;;;;;17.40;7.55;;;4.60;99.90;;;;;;5050052;28;20804;-69
2021/10/08 04:37:14;;;;;;;23.73;7.50;;;4.60;99.90;;;;;;5055044;28;20080;-69
2021/10/08 04:39:40;;;;;;;25.50;6.93;;;4.60;99.90;;;;;;5071564;28;20540;-68
2021/10/08 04:42:06;;;;;;;27.85;7.38;;;4.60;99.90;;;;;;5072294;28;20084;-68
2021/10/08 04:44:32;;;;;;;21.10;7.43;;;4.60;99.90;;;;;;5071366;28;20036;-69
2021/10/08 04:46:58;;;;;;;46.20;8.25;;;4.70;99.90;;;;;;5051994;28;20101;-67
2021/10/08 04:49:25;;;;;;;52.03;8.82;;;4.60;99.90;;;;;;5054747;28;20044;-67
2021/10/08 04:51:50;;;;;;;29.20;8.25;;;4.70;99.90;;;;;;5071934;28;20162;-69
2021/10/08 04:54:16;;;;;;;32.22;7.85;;;4.70;99.90;;;;;;5054701;28;20036;-67
2021/10/08 04:56:41;;;;;;;20.20;7.18;;;4.70;99.90;;;;;;5072612;28;20474;-67
2021/10/08 04:59:07;;;;;;;38.55;7.97;;;4.70;99.90;;;;;;5054692;28;20046;-67
2021/10/08 05:01:32;;;;;;;45.95;7.72;;;4.70;99.90;;;;;;5053850;28;20059;-67
2021/10/08 05:03:58;;;;;;;62.28;8.95;;;4.60;99.90;;;;;;5053067;28;20471;-67
2021/10/08 05:06:24;;;;;;;39.65;8.13;;;4.50;99.90;;;;;;5054347;28;20040;-67
2021/10/08 05:08:49;;;;;;;35.90;8.40;;;4.40;99.90;;;;;;5071104;28;20078;-67
2021/10/08 05:11:16;;;;;;;27.52;7.28;;;4.50;99.90;;;;;;5072202;28;20417;-67
2021/10/08 05:13:41;;;;;;;31.80;8.07;;;4.50;99.90;;;;;;5052754;28;20151;-67
2021/10/08 05:16:07;;;;;;;47.05;8.27;;;4.40;99.90;;;;;;5072194;28;20128;-67
2021/10/08 05:18:33;;;;;;;29.75;7.85;;;4.30;99.90;;;;;;5053709;28;20561;-67
2021/10/08 05:20:58;;;;;;;28.88;7.38;;;4.30;99.90;;;;;;5054347;28;20044;-68
2021/10/08 05:23:24;;;;;;;27.85;8.60;;;4.40;99.90;;;;;;5071835;28;20032;-68
2021/10/08 05:25:50;;;;;;;21.52;7.68;;;4.40;99.90;;;;;;5070971;28;20062;-67
2021/10/08 05:28:15;;;;;;;25.08;7.78;;;4.40;99.90;;;;;;5071562;28;20438;-67
2021/10/08 05:30:41;;;;;;;35.97;8.40;;;4.40;99.90;;;;;;5053405;28;20052;-67
2021/10/08 05:33:06;;;;;;;23.80;7.63;;;4.30;99.90;;;;;;5054109;28;20044;-67
2021/10/08 05:35:32;;;;;;;20.08;7.68;;;4.30;99.90;;;;;;5071390;28;20126;-67
2021/10/08 05:37:58;;;;;;;40.72;8.63;;;4.30;99.90;;;;;;5053284;28;20155;-67
2021/10/08 05:40:23;;;;;;;33.53;7.70;;;4.30;99.90;;;;;;5052959;28;20097;-68
2021/10/08 05:42:49;;;;;;;27.92;7.63;;;4.30;99.90;;;;;;5051667;28;20059;-68
2021/10/08 05:45:14;;;;;;;21.70;6.97;;;4.30;99.90;;;;;;5052749;28;20044;-68
2021/10/08 05:47:40;;;;;;;33.30;8.18;;;4.20;99.90;;;;;;5050341;28;20037;-68
2021/10/08 05:50:06;;;;;;;38.10;8.32;;;4.30;99.90;;;;;;5073331;28;20393;-68
2021/10/08 05:52:32;;;;;;;35.08;8.23;;;4.40;99.90;;;;;;5070299;28;20058;-69
2021/10/08 05:54:58;;;;;;;40.22;10.30;;;4.60;99.90;;;;;;5067602;28;20564;-68
2021/10/08 05:57:23;;;;;;;29.00;9.27;;;4.70;99.90;;;;;;5069673;28;20040;-69
2021/10/08 05:59:49;;;;;;;50.40;10.50;;;4.90;99.90;;;;;;5051181;28;20123;-70
2021/10/08 06:02:14;;;;;;;35.17;10.07;;;5.00;99.90;;;;;;5052330;28;20136;-67
2021/10/08 06:04:40;;;;;;;25.98;9.63;;;5.00;99.90;;;;;;5063191;28;20069;-67
2021/10/08 06:07:07;;;;;;;74.30;10.38;;;4.80;99.90;;;;;;5053283;28;20048;-67
2021/10/08 06:09:34;;;;;;;38.78;9.55;;;4.80;99.90;;;;;;5067847;28;20037;-67
2021/10/08 06:12:00;;;;;;;36.72;9.90;;;4.70;99.90;;;;;;5068750;28;20044;-67
2021/10/08 06:14:25;;;;;;;28.17;9.98;;;4.60;99.90;;;;;;5051916;28;20032;-67
2021/10/08 06:16:51;;;;;;;59.63;10.48;;;4.70;99.90;;;;;;5052233;28;20036;-67
2021/10/08 06:19:17;;;;;;;49.60;11.80;;;4.60;99.90;;;;;;5052034;28;20513;-67
2021/10/08 06:21:42;;;;;;;46.85;11.13;;;4.70;99.90;;;;;;5052097;28;20076;-67
2021/10/08 06:24:08;;;;;;;20.50;9.77;;;4.80;99.90;;;;;;5070047;28;20599;-67
2021/10/08 06:26:34;;;;;;;59.45;11.77;;;4.70;99.90;;;;;;5070058;28;20135;-67
2021/10/08 06:28:59;;;;;;;51.38;11.30;;;4.80;99.90;;;;;;5052185;28;20048;-67
2021/10/08 06:31:25;;;;;;;53.72;11.98;;;4.80;99.90;;;;;;5067932;28;20033;-68
2021/10/08 06:33:50;;;;;;;49.58;10.40;;;4.80;99.90;;;;;;5033476;28;20040;-68
2021/10/08 06:36:16;;;;;;;59.70;11.70;;;4.80;99.90;;;;;;5069245;28;20036;-68
2021/10/08 06:38:41;;;;;;;91.80;13.23;;;4.80;99.90;;;;;;5069415;28;20040;-68
2021/10/08 06:41:07;;;;;;;60.63;13.45;;;4.80;99.90;;;;;;5052209;28;20045;-68
2021/10/08 06:43:33;;;;;;;33.40;12.43;;;4.90;99.90;;;;;;5050392;28;20048;-68
2021/10/08 06:45:58;;;;;;;36.13;13.05;;;5.00;99.90;;;;;;5069357;28;20079;-68
2021/10/08 06:48:24;;;;;;;68.38;13.68;;;5.20;99.90;;;;;;5052339;28;20044;-68
2021/10/08 06:50:50;;;;;;;41.20;12.40;;;5.20;99.90;;;;;;5050666;28;20060;-67
2021/10/08 06:53:15;;;;;;;63.92;14.27;;;5.30;99.90;;;;;;5069825;28;20036;-68
2021/10/08 06:55:41;;;;;;;53.30;13.85;;;5.40;99.90;;;;;;5052361;28;20032;-68
2021/10/08 06:58:07;;;;;;;50.65;13.90;;;5.40;99.90;;;;;;5067919;28;20394;-70
2021/10/08 07:00:32;;;;;;;49.00;13.88;;;5.50;99.90;;;;;;5049360;28;20040;-68
2021/10/08 07:02:58;;;;;;;80.18;14.55;;;5.60;99.90;;;;;;5052548;28;20177;-68
2021/10/08 07:05:25;;;;;;;62.38;14.75;;;5.70;99.90;;;;;;5069155;28;20055;-68
2021/10/08 07:07:51;;;;;;;81.30;15.57;;;5.90;99.90;;;;;;5050990;28;20042;-68
2021/10/08 07:10:17;;;;;;;34.60;14.50;;;5.90;99.90;;;;;;5066663;28;20499;-68
2021/10/08 07:12:43;;;;;;;56.92;14.10;;;6.10;99.90;;;;;;5051842;28;20036;-69
2021/10/08 07:15:20;;;;;;;41.50;14.20;;;6.30;99.90;;;;;;5048955;28;20032;-68
2021/10/08 07:17:49;;;;;;;37.90;12.93;;;6.50;99.90;;;;;;5066535;28;20037;-69
2021/10/08 07:20:17;;;;;;;58.97;14.55;;;6.40;99.90;;;;;;5069389;28;20059;-68
2021/10/08 07:22:43;;;;;;;37.03;13.57;;;6.60;99.90;;;;;;5063483;28;20032;-68
2021/10/08 07:25:09;;;;;;;55.08;14.60;;;6.70;99.90;;;;;;5047240;28;20082;-68
2021/10/08 07:27:36;;;;;;;42.35;14.18;;;6.80;99.90;;;;;;5031291;28;20028;-68
2021/10/08 07:30:04;;;;;;;30.33;13.40;;;6.80;99.90;;;;;;5028804;28;20450;-68
2021/10/08 07:32:30;;;;;;;24.73;11.45;;;7.00;99.90;;;;;;5065941;28;20746;-68
2021/10/08 07:34:55;;;;;;;18.92;11.40;;;7.40;99.90;;;;;;5047717;28;20048;-68
2021/10/08 07:37:22;;;;;;;17.38;12.20;;;7.60;99.90;;;;;;5070190;28;20044;-68
2021/10/08 07:39:48;;;;;;;16.92;11.85;;;7.70;99.90;;;;;;5066600;28;20060;-69
2021/10/08 07:42:13;;;;;;;36.92;12.80;;;7.90;99.90;;;;;;5069330;28;20045;-68
2021/10/08 07:44:39;;;;;;;17.00;12.50;;;8.10;99.90;;;;;;5065038;28;20746;-67
2021/10/08 07:47:05;;;;;;;28.65;12.32;;;8.20;99.90;;;;;;5051655;28;20064;-68
2021/10/08 07:49:31;;;;;;;28.65;12.98;;;8.30;99.90;;;;;;5062548;28;20056;-68
2021/10/08 08:25:44;;;;;;;20.70;15.50;;;9.40;99.90;;;;;;5064635;28;20078;-68
2021/10/08 08:28:10;;;;;;;24.83;16.58;;;9.60;99.90;;;;;;5044098;28;20040;-68
2021/10/08 08:30:41;;;;;;;25.20;17.42;;;9.60;99.90;;;;;;5071085;28;20071;-68
2021/10/08 08:33:06;;;;;;;21.92;17.42;;;9.70;99.90;;;;;;5061359;28;20111;-67
2021/10/08 08:35:32;;;;;;;20.33;18.02;;;9.80;99.90;;;;;;5036186;28;20128;-67
2021/10/08 08:37:58;;;;;;;21.63;17.48;;;9.90;99.90;;;;;;5065866;28;20056;-67
2021/10/08 08:40:25;;;;;;;20.85;18.13;;;10.10;99.90;;;;;;5054568;28;20045;-67
2021/10/08 08:42:56;;;;;;;20.55;18.33;;;10.20;99.90;;;;;;5048409;28;20108;-67
2021/10/08 08:45:22;;;;;;;24.80;19.92;;;10.30;99.90;;;;;;5069709;28;20024;-67
2021/10/08 08:47:59;;;;;;;23.35;18.80;;;10.40;99.90;;;;;;5050980;28;20093;-67
2021/10/08 08:50:26;;;;;;;22.38;18.50;;;10.50;99.90;;;;;;5070116;28;20124;-68
2021/10/08 08:52:51;;;;;;;27.10;20.63;;;10.60;99.90;;;;;;5051980;28;20045;-68
2021/10/08 08:55:17;;;;;;;24.35;19.58;;;10.70;99.90;;;;;;5052884;28;20067;-68
2021/10/08 08:57:43;;;;;;;28.33;21.40;;;10.80;99.90;;;;;;5050877;28;20160;-68
2021/10/08 09:00:12;;;;;;;27.25;20.90;;;10.90;99.90;;;;;;5065442;28;20054;-68
2021/10/08 09:02:40;;;;;;;25.92;21.35;;;11.10;99.90;;;;;;5047735;28;20051;-68
2021/10/08 09:05:15;;;;;;;23.70;19.23;;;11.10;99.90;;;;;;5045863;28;20076;-68
2021/10/08 09:07:41;;;;;;;29.90;22.23;;;11.20;99.90;;;;;;5071166;28;20375;-67
2021/10/08 09:10:14;;;;;;;28.77;21.60;;;11.30;99.90;;;;;;5071707;28;20049;-68
2021/10/08 09:12:41;;;;;;;32.90;23.42;;;11.50;99.90;;;;;;5069962;28;20485;-68
2021/10/08 09:15:08;;;;;;;32.30;24.20;;;11.50;99.90;;;;;;5050792;28;20430;-68
2021/10/08 09:17:34;;;;;;;33.95;25.13;;;11.60;99.90;;;;;;5052703;28;20040;-68
2021/10/08 09:20:06;;;;;;;31.30;22.98;;;11.70;99.90;;;;;;5068720;28;20367;-68
2021/10/08 09:22:40;;;;;;;34.15;24.23;;;11.90;99.90;;;;;;5056044;28;20045;-68
2021/10/08 09:25:12;;;;;;;27.83;19.50;;;12.00;99.90;;;;;;5052845;28;20449;-68
2021/10/08 09:27:39;;;;;;;32.75;23.20;;;12.00;99.90;;;;;;5060718;28;20119;-68
2021/10/08 09:30:06;;;;;;;29.98;21.50;;;12.10;99.90;;;;;;5052878;28;20045;-68
2021/10/08 09:32:40;;;;;;;24.00;18.40;;;12.10;99.90;;;;;;5065834;28;20047;-69
2021/10/08 09:35:08;;;;;;;27.90;20.40;;;12.20;99.90;;;;;;5070532;28;20040;-69
2021/10/08 09:37:35;;;;;;;26.48;19.75;;;12.30;99.90;;;;;;5070086;28;20056;-73
2021/10/08 09:40:03;;;;;;;27.77;19.75;;;12.40;99.90;;;;;;5036603;28;20044;-72
2021/10/08 09:42:36;;;;;;;29.00;21.08;;;12.40;99.90;;;;;;5049951;28;20045;-72
2021/10/08 09:45:03;;;;;;;28.80;21.60;;;12.50;99.90;;;;;;5047753;28;20105;-73
2021/10/08 09:47:29;;;;;;;30.92;22.38;;;12.60;99.90;;;;;;5034610;28;20054;-73
2021/10/08 09:50:12;;;;;;;34.67;24.90;;;12.70;99.90;;;;;;5051254;28;20028;-72
2021/10/08 09:52:39;;;;;;;28.20;21.15;;;12.70;99.90;;;;;;5034667;28;20043;-72
2021/10/08 09:55:08;;;;;;;27.00;21.23;;;12.90;99.90;;;;;;5041796;28;20091;-72
2021/10/08 09:57:49;;;;;;;28.92;22.05;;;12.90;99.90;;;;;;5039338;28;20084;-72
2021/10/08 10:00:43;;;;;;;27.30;20.63;;;13.00;99.90;;;;;;5039382;28;20041;-72
2021/10/08 10:03:12;;;;;;;26.13;20.95;;;13.10;99.90;;;;;;5045845;28;20490;-73
2021/10/08 10:05:37;;;;;;;22.67;18.23;;;13.10;99.90;;;;;;5043704;28;20032;-73
2021/10/08 10:08:04;;;;;;;22.42;17.05;;;13.30;99.90;;;;;;5041498;28;20683;-72
2021/10/08 10:10:30;;;;;;;20.33;17.30;;;13.40;99.90;;;;;;5039423;28;20070;-70
2021/10/08 10:12:59;;;;;;;22.52;16.77;;;13.50;99.90;;;;;;5043760;28;20059;-70
2021/10/08 10:15:24;;;;;;;18.92;16.10;;;13.60;99.90;;;;;;5041994;28;20438;-70
2021/10/08 10:17:50;;;;;;;18.85;16.85;;;13.70;99.90;;;;;;5065661;28;20127;-71
2021/10/08 10:20:16;;;;;;;15.85;14.23;;;13.80;99.90;;;;;;5051088;28;20504;-70
2021/10/08 10:22:42;;;;;;;17.80;15.05;;;13.90;99.90;;;;;;5051562;28;20036;-69
2021/10/08 10:25:11;;;;;;;17.70;15.82;;;14.00;99.90;;;;;;5051504;28;20049;-70
2021/10/08 10:27:42;;;;;;;18.05;15.32;;;14.00;99.90;;;;;;5047299;28;20041;-70
2021/10/08 10:30:09;;;;;;;16.25;14.63;;;14.10;99.90;;;;;;5032214;28;20050;-69
2021/10/08 10:32:35;;;;;;;15.73;14.05;;;14.10;99.90;;;;;;5064928;28;20041;-70
2021/10/08 10:35:03;;;;;;;17.73;15.90;;;14.20;99.90;;;;;;5044876;28;20091;-70
2021/10/08 10:37:39;;;;;;;16.85;15.10;;;14.20;99.90;;;;;;5061326;28;20510;-70
2021/10/08 10:40:22;;;;;;;25.23;15.65;;;14.30;99.90;;;;;;5046223;28;20755;-70
2021/10/08 10:43:18;;;;;;;19.45;17.45;;;14.40;99.90;;;;;;5062050;28;20048;-69
2021/10/08 10:45:49;;;;;;;23.08;15.68;;;14.40;99.90;;;;;;5047709;28;20076;-70
2021/10/08 10:48:24;;;;;;;17.05;15.35;;;14.50;99.90;;;;;;5067904;28;20036;-70
2021/10/08 10:51:11;;;;;;;16.80;15.10;;;14.50;99.90;;;;;;5049687;28;20044;-70
2021/10/08 10:53:50;;;;;;;17.50;14.95;;;14.60;99.90;;;;;;5047294;28;20070;-70
2021/10/08 10:56:39;;;;;;;16.05;14.45;;;14.70;99.90;;;;;;5066962;28;20037;-70
2021/10/08 10:59:23;;;;;;;18.42;16.55;;;14.80;99.90;;;;;;5044583;28;20550;-70
2021/10/08 11:02:12;;;;;;;17.05;15.38;;;14.80;99.90;;;;;;5046607;28;20504;-70
2021/10/08 11:04:42;;;;;;;16.20;14.57;;;14.90;99.90;;;;;;5041981;28;20044;-70
2021/10/08 11:07:09;;;;;;;17.63;15.77;;;14.90;99.90;;;;;;5044426;28;20482;-69
2021/10/08 11:09:36;;;;;;;17.88;16.13;;;15.00;99.90;;;;;;5047373;28;20056;-69
2021/10/08 11:12:30;;;;;;;17.48;15.68;;;15.00;99.90;;;;;;5041838;28;20512;-70
2021/10/08 11:15:16;;;;;;;15.35;13.75;;;15.10;99.90;;;;;;5048541;28;20545;-70
2021/10/08 11:17:59;;;;;;;15.07;13.57;;;15.20;99.90;;;;;;5035143;28;20061;-70
2021/10/08 11:20:25;;;;;;;16.85;14.95;;;15.20;99.90;;;;;;5069164;28;20033;-70
2021/10/08 11:22:54;;;;;;;13.70;12.40;;;15.30;99.90;;;;;;5055398;28;20495;-70
2021/10/08 11:25:20;;;;;;;14.45;12.95;;;15.40;99.90;;;;;;5037443;28;20083;-70
2021/10/08 11:27:46;;;;;;;14.15;12.73;;;15.50;99.90;;;;;;5070340;28;20442;-69
2021/10/08 11:30:13;;;;;;;13.60;12.30;;;15.60;99.90;;;;;;5048110;28;20394;-70
2021/10/08 11:32:45;;;;;;;11.45;10.32;;;15.60;99.90;;;;;;5050013;28;20041;-69
2021/10/08 11:35:10;;;;;;;12.70;11.18;;;15.70;99.90;;;;;;5054238;28;20745;-69
2021/10/08 11:37:44;;;;;;;11.77;10.68;;;15.80;99.90;;;;;;5053393;28;20094;-69
2021/10/08 11:40:10;;;;;;;12.35;9.68;;;16.00;99.90;;;;;;5070152;28;20036;-69
2021/10/08 11:46:02;;;;;;;11.45;9.55;;;16.10;99.90;;;;;;5034759;28;20054;-69
2021/10/08 11:48:42;;;;;;;8.75;7.95;;;16.20;99.90;;;;;;5047170;28;20075;-70
2021/10/08 11:51:08;;;;;;;9.98;9.05;;;16.30;99.90;;;;;;5063749;28;20045;-69
2021/10/08 11:53:40;;;;;;;9.93;9.00;;;16.40;99.90;;;;;;5037112;28;20359;-69
2021/10/08 11:56:27;;;;;;;10.95;9.60;;;16.40;99.90;;;;;;5033708;28;20439;-70
2021/10/08 11:58:58;;;;;;;11.02;9.93;;;16.40;99.90;;;;;;5051861;28;20075;-70
2021/10/08 12:01:27;;;;;;;11.18;10.10;;;16.50;99.90;;;;;;5035761;28;20052;-70
2021/10/08 12:03:53;;;;;;;10.02;9.05;;;16.50;99.90;;;;;;5049154;28;20037;-70
2021/10/08 12:06:27;;;;;;;9.10;8.20;;;16.50;99.90;;;;;;5048563;28;20284;-70
2021/10/08 12:08:53;;;;;;;8.77;7.88;;;16.60;99.90;;;;;;5051210;28;20039;-70
2021/10/08 12:11:20;;;;;;;9.10;8.20;;;16.60;99.90;;;;;;5052663;28;20517;-71
2021/10/08 12:13:53;;;;;;;8.60;7.80;;;16.60;99.90;;;;;;5052598;28;20040;-70
2021/10/08 12:16:21;;;;;;;9.38;8.10;;;16.70;99.90;;;;;;5049254;28;20132;-69
2021/10/08 12:18:57;;;;;;;8.05;7.25;;;16.70;99.90;;;;;;5049412;28;20424;-69
2021/10/08 12:21:46;;;;;;;7.00;6.30;;;16.80;99.90;;;;;;5053234;28;20029;-70
2021/10/08 12:24:21;;;;;;;7.53;6.82;;;16.80;99.90;;;;;;5051064;28;20048;-69
2021/10/08 12:27:03;;;;;;;7.88;7.07;;;16.70;99.90;;;;;;5050015;28;20098;-69
2021/10/08 12:29:42;;;;;;;7.37;6.67;;;16.70;99.90;;;;;;5067770;28;20479;-69
2021/10/08 12:32:11;;;;;;;7.68;6.95;;;16.80;99.90;;;;;;5051202;28;20048;-69
2021/10/08 12:34:39;;;;;;;7.63;6.93;;;17.00;99.90;;;;;;5063289;28;20221;-69
2021/10/08 12:37:10;;;;;;;8.52;7.72;;;17.10;99.90;;;;;;5048712;28;20431;-69
2021/10/08 12:39:56;;;;;;;9.05;7.28;;;17.20;99.90;;;;;;5045158;28;20681;-71
2021/10/08 12:42:24;;;;;;;8.38;7.65;;;17.30;99.90;;;;;;5050328;28;20059;-71
2021/10/08 12:44:59;;;;;;;7.70;7.00;;;17.30;99.90;;;;;;5033611;28;20487;-72
2021/10/08 12:47:35;;;;;;;8.02;7.22;;;17.40;99.90;;;;;;5050480;28;20094;-72
2021/10/08 12:50:06;;;;;;;12.57;8.55;;;17.30;99.90;;;;;;5049488;28;20091;-72
2021/10/08 12:52:59;;;;;;;8.73;7.78;;;17.10;99.90;;;;;;5049801;28;20060;-71
2021/10/08 12:55:25;;;;;;;10.32;9.15;;;16.90;99.90;;;;;;5047272;28;20057;-71
2021/10/08 12:58:17;;;;;;;10.27;8.40;;;16.80;99.90;;;;;;5032568;28;20040;-72
2021/10/08 13:00:49;;;;;;;9.32;8.43;;;16.90;99.90;;;;;;5050513;28;20045;-72
2021/10/08 13:03:35;;;;;;;9.43;8.60;;;16.90;99.90;;;;;;5050301;28;20044;-72
2021/10/08 13:06:19;;;;;;;8.95;8.02;;;16.70;99.90;;;;;;5050316;28;20033;-72
2021/10/08 13:09:08;;;;;;;10.15;9.15;;;16.80;99.90;;;;;;5050077;28;20071;-72
2021/10/08 13:11:35;;;;;;;11.90;9.77;;;16.90;99.90;;;;;;5050091;28;20052;-72
2021/10/08 13:14:01;;;;;;;11.20;9.98;;;17.00;99.90;;;;;;5046348;28;20147;-72
2021/10/08 13:16:29;;;;;;;13.68;9.07;;;17.00;99.90;;;;;;5049973;28;20128;-72
2021/10/08 13:18:56;;;;;;;10.23;9.20;;;17.00;99.90;;;;;;5049951;28;20032;-72
2021/10/08 13:21:22;;;;;;;10.15;9.23;;;17.00;99.90;;;;;;5050372;28;20446;-73
2021/10/08 13:23:50;;;;;;;10.13;9.13;;;17.00;99.90;;;;;;5050066;28;20445;-72